Pollock, South Dakota
Current Conditions -  °F | °C
As of 5:15 AM on Friday 28 Nov 2014 (Local Time) from K7L2 Reporting Station
Overcast Overcast  
Wind Chill:   Ceiling: 11000
Heat Index: 14°   Visibility: 10mi
Dew Point: 10°   Wind: 8mph
Humidity: 86%   Direction: 120°ESE
Pressure: 29.78"   Gusts: NA
Location:  45.9°N, 100.29°W
Report Text: K7L2 281215Z AUTO 12007KT 10SM SCT090 OVC110 M10/M12 A2978 RMK AO2
Loading
Personal Weather Stations






























Interactive Weather Map New forecast layout! Learn more

10-Day Weather Forecast

Advertisements
Track Severe Weather on mobile